createdAt,value
2019-05-29T00:01:19.785Z,9.82
2019-05-29T00:03:44.663Z,9.82
2019-05-29T00:06:12.427Z,9.82
2019-05-29T00:08:39.531Z,9.79
2019-05-29T00:11:06.428Z,9.78
2019-05-29T00:13:33.183Z,9.74
2019-05-29T00:16:00.046Z,9.76
2019-05-29T00:18:27.092Z,9.78
2019-05-29T00:20:54.026Z,9.79
2019-05-29T00:23:20.779Z,9.87
2019-05-29T00:25:47.648Z,9.88
2019-05-29T00:28:14.858Z,9.87
2019-05-29T00:30:42.446Z,9.86
2019-05-29T00:33:10.104Z,9.83
2019-05-29T00:35:37.002Z,9.96
2019-05-29T00:38:03.881Z,9.95
2019-05-29T00:40:31.093Z,10.03
2019-05-29T00:42:57.962Z,10.08
2019-05-29T00:45:25.183Z,10.07
2019-05-29T00:47:51.999Z,10.08
2019-05-29T00:50:18.855Z,10.14
2019-05-29T00:52:45.852Z,10.13
2019-05-29T00:55:12.939Z,10.10
2019-05-29T00:57:39.807Z,10.05
2019-05-29T01:00:07.124Z,10.14
2019-05-29T01:02:33.900Z,10.14
2019-05-29T01:05:00.706Z,10.15
2019-05-29T01:07:27.802Z,10.12
2019-05-29T01:09:54.603Z,10.11
2019-05-29T01:12:21.387Z,10.09
2019-05-29T01:14:50.446Z,10.06
2019-05-29T01:17:17.649Z,10.06
2019-05-29T01:19:44.539Z,9.97
2019-05-29T01:22:12.250Z,9.91
2019-05-29T01:24:39.290Z,9.91
2019-05-29T01:27:06.105Z,9.89
2019-05-29T01:29:32.968Z,9.88
2019-05-29T01:31:59.742Z,10.00
2019-05-29T01:34:26.602Z,10.02
2019-05-29T01:36:53.731Z,10.05
2019-05-29T01:39:21.360Z,10.19
2019-05-29T01:41:48.641Z,10.24
2019-05-29T01:44:15.408Z,10.31
2019-05-29T01:46:42.256Z,10.26
2019-05-29T01:49:09.161Z,10.38
2019-05-29T01:51:35.955Z,10.46
2019-05-29T01:54:02.907Z,10.46
2019-05-29T01:56:29.762Z,10.51
2019-05-29T01:58:56.541Z,10.53
2019-05-29T02:01:23.993Z,10.54
2019-05-29T02:03:51.187Z,10.61
2019-05-29T02:06:18.331Z,10.57
2019-05-29T02:08:45.239Z,10.71
2019-05-29T02:11:12.011Z,10.66
2019-05-29T02:13:38.904Z,10.66
2019-05-29T02:16:05.765Z,10.67
2019-05-29T02:18:32.568Z,10.61
2019-05-29T02:20:59.588Z,10.78
2019-05-29T02:23:26.838Z,10.82
2019-05-29T02:25:53.599Z,10.86
2019-05-29T02:28:20.541Z,10.87
2019-05-29T02:30:47.493Z,10.90
2019-05-29T02:33:14.354Z,11.02
2019-05-29T02:35:41.289Z,10.89
2019-05-29T02:38:08.199Z,10.97
2019-05-29T02:40:35.049Z,11.14
2019-05-29T02:43:01.880Z,11.22
2019-05-29T02:45:50.845Z,11.15
2019-05-29T02:47:57.382Z,11.26
2019-05-29T02:50:26.185Z,11.23
2019-05-29T02:52:53.070Z,11.27
2019-05-29T02:55:20.781Z,11.33
2019-05-29T02:57:48.414Z,11.38
2019-05-29T03:00:15.772Z,11.50
2019-05-29T03:02:43.054Z,11.49
2019-05-29T03:05:10.065Z,11.64
2019-05-29T03:07:36.827Z,11.68
2019-05-29T03:10:04.597Z,11.63
2019-05-29T03:12:33.483Z,11.69
2019-05-29T03:15:00.285Z,11.59
2019-05-29T03:17:27.881Z,11.56
2019-05-29T03:19:55.313Z,11.60
2019-05-29T03:22:22.704Z,11.72
2019-05-29T03:24:50.811Z,11.71
2019-05-29T03:27:18.295Z,11.56
2019-05-29T03:29:45.192Z,11.60
2019-05-29T03:32:14.248Z,11.70
2019-05-29T03:34:46.375Z,11.68
2019-05-29T03:37:09.703Z,11.66
2019-05-29T03:39:36.454Z,11.69
2019-05-29T03:42:03.345Z,11.71
2019-05-29T03:44:30.762Z,11.77
2019-05-29T03:46:57.749Z,11.72
2019-05-29T03:49:24.639Z,11.87
2019-05-29T03:51:51.421Z,11.72
2019-05-29T03:54:18.311Z,11.73
2019-05-29T03:56:45.065Z,11.75
2019-05-29T03:59:11.977Z,11.67
2019-05-29T04:01:39.398Z,11.72
2019-05-29T04:04:06.344Z,11.68
2019-05-29T04:06:33.502Z,11.63
2019-05-29T04:09:00.649Z,11.48
2019-05-29T04:11:27.944Z,11.51
2019-05-29T04:13:56.020Z,11.46
2019-05-29T04:16:23.562Z,11.43
2019-05-29T04:18:50.629Z,11.39
2019-05-29T04:21:19.261Z,11.32
2019-05-29T04:23:48.358Z,11.37
2019-05-29T04:26:15.883Z,11.39
2019-05-29T04:28:42.645Z,11.44
2019-05-29T04:31:09.417Z,11.45
2019-05-29T04:33:36.832Z,11.38
2019-05-29T04:36:05.265Z,11.37
2019-05-29T04:38:33.795Z,11.39
2019-05-29T04:41:01.340Z,11.44
2019-05-29T04:43:28.749Z,11.46
2019-05-29T04:45:55.921Z,11.55
2019-05-29T04:48:22.855Z,11.64
2019-05-29T04:50:49.591Z,11.79
2019-05-29T04:53:16.506Z,11.84
2019-05-29T04:55:43.361Z,11.86
2019-05-29T04:58:10.168Z,11.95
2019-05-29T05:00:37.316Z,12.04
2019-05-29T05:03:04.333Z,12.09
2019-05-29T05:05:31.286Z,12.18
2019-05-29T05:07:57.998Z,12.17
2019-05-29T05:10:36.036Z,12.22
2019-05-29T05:13:08.405Z,12.24
2019-05-29T05:15:35.986Z,12.37
2019-05-29T05:18:04.435Z,12.36
2019-05-29T05:20:31.962Z,12.28
2019-05-29T05:22:59.031Z,12.37
2019-05-29T05:25:25.944Z,12.46
2019-05-29T05:27:52.854Z,12.49
2019-05-29T05:30:19.656Z,12.47
2019-05-29T05:32:46.596Z,12.48
2019-05-29T05:35:14.494Z,12.58
2019-05-29T05:37:42.668Z,12.78
2019-05-29T05:40:09.808Z,12.79
2019-05-29T05:42:37.134Z,13.02
2019-05-29T05:45:04.532Z,12.85
2019-05-29T05:47:45.110Z,12.98
2019-05-29T05:50:00.001Z,13.04
2019-05-29T05:52:26.789Z,13.32
2019-05-29T05:54:53.688Z,13.41
2019-05-29T05:57:20.454Z,13.42
2019-05-29T05:59:48.111Z,13.31
2019-05-29T06:02:15.369Z,13.15
2019-05-29T06:04:42.249Z,13.02
2019-05-29T06:07:08.986Z,13.02
2019-05-29T06:09:36.122Z,12.96
2019-05-29T06:12:03.049Z,13.03
2019-05-29T06:14:30.227Z,13.11
2019-05-29T06:16:56.991Z,13.05
2019-05-29T06:19:23.835Z,13.15
2019-05-29T06:21:50.723Z,13.13
2019-05-29T06:24:17.519Z,13.26
2019-05-29T06:26:44.322Z,13.42
2019-05-29T06:29:12.234Z,13.23
2019-05-29T06:31:39.436Z,13.33
2019-05-29T06:34:06.295Z,13.33
2019-05-29T06:36:33.498Z,13.42
2019-05-29T06:39:00.439Z,13.18
2019-05-29T06:41:27.362Z,13.21
2019-05-29T06:43:54.352Z,13.45
2019-05-29T06:46:21.138Z,13.43
2019-05-29T06:48:58.761Z,13.41
2019-05-29T06:51:16.831Z,13.20
2019-05-29T06:53:44.122Z,13.04
2019-05-29T06:56:11.209Z,13.16
2019-05-29T06:58:40.046Z,13.37
2019-05-29T07:01:07.177Z,13.50
2019-05-29T07:03:35.496Z,13.72
2019-05-29T07:06:02.602Z,13.59
2019-05-29T07:08:38.860Z,13.66
2019-05-29T07:10:58.220Z,13.73
2019-05-29T07:13:25.102Z,13.80
2019-05-29T07:15:53.154Z,13.89
2019-05-29T07:18:20.249Z,14.21
2019-05-29T07:20:47.692Z,14.53
2019-05-29T07:23:14.612Z,14.71
2019-05-29T07:25:41.484Z,14.45
2019-05-29T07:28:08.382Z,14.49
2019-05-29T07:30:35.311Z,14.40
2019-05-29T07:33:02.225Z,14.36
2019-05-29T07:35:29.182Z,14.09
2019-05-29T07:37:56.106Z,14.15
2019-05-29T07:40:23.247Z,13.87
2019-05-29T07:42:56.032Z,13.78
2019-05-29T07:45:19.567Z,13.82
2019-05-29T07:47:48.473Z,14.07
2019-05-29T07:50:15.609Z,14.27
2019-05-29T07:52:45.339Z,14.79
2019-05-29T07:55:12.244Z,15.04
2019-05-29T07:57:40.858Z,15.67
2019-05-29T08:00:09.109Z,15.47
2019-05-29T08:02:36.024Z,15.19
2019-05-29T08:05:02.941Z,15.26
2019-05-29T08:07:30.765Z,14.84
2019-05-29T08:09:57.607Z,14.87
2019-05-29T08:12:24.593Z,14.97
2019-05-29T08:14:51.472Z,14.92
2019-05-29T08:17:18.568Z,15.23
2019-05-29T08:20:00.631Z,15.38
2019-05-29T08:22:14.285Z,15.67
2019-05-29T08:24:42.450Z,15.76
2019-05-29T08:27:09.383Z,15.69
2019-05-29T08:29:36.344Z,15.42
2019-05-29T08:32:03.604Z,15.66
2019-05-29T08:34:30.390Z,15.70
2019-05-29T08:37:06.491Z,15.70
2019-05-29T08:39:36.141Z,16.17
2019-05-29T08:42:20.316Z,16.69
2019-05-29T08:44:23.929Z,17.23
2019-05-29T08:47:09.031Z,17.71
2019-05-29T08:49:21.147Z,17.72
2019-05-29T08:51:48.397Z,17.43
2019-05-29T08:54:23.935Z,17.44
2019-05-29T08:56:44.287Z,17.51
2019-05-29T08:59:12.325Z,17.46
2019-05-29T09:01:39.193Z,16.86
2019-05-29T09:04:06.102Z,16.78
2019-05-29T09:06:33.426Z,16.45
2019-05-29T09:09:00.527Z,16.43
2019-05-29T09:11:29.708Z,16.58
2019-05-29T09:13:57.966Z,16.97
2019-05-29T09:16:24.866Z,17.68
2019-05-29T09:18:51.785Z,18.11
2019-05-29T09:21:19.207Z,18.59
2019-05-29T09:23:46.753Z,17.91
2019-05-29T09:26:19.178Z,17.80
2019-05-29T09:28:42.427Z,18.14
2019-05-29T09:31:09.203Z,17.79
2019-05-29T09:33:36.024Z,17.94
2019-05-29T09:36:02.890Z,17.95
2019-05-29T09:38:29.808Z,17.85
2019-05-29T09:40:57.291Z,17.93
2019-05-29T09:43:28.576Z,18.12
2019-05-29T09:45:53.139Z,18.03
2019-05-29T09:48:23.312Z,17.93
2019-05-29T09:50:50.582Z,17.91
2019-05-29T09:53:17.726Z,16.97
2019-05-29T09:55:44.494Z,16.98
2019-05-29T09:58:11.295Z,17.23
2019-05-29T10:00:38.183Z,17.78
2019-05-29T10:03:04.973Z,18.21
2019-05-29T10:05:31.908Z,18.68
2019-05-29T10:07:59.758Z,19.00
2019-05-29T10:10:26.831Z,18.97
2019-05-29T10:12:55.251Z,19.53
2019-05-29T10:15:22.859Z,19.58
2019-05-29T10:17:49.779Z,20.25
2019-05-29T10:20:17.153Z,19.90
2019-05-29T10:22:44.383Z,19.60
2019-05-29T10:25:11.722Z,19.35
2019-05-29T10:27:38.495Z,19.74
2019-05-29T10:30:06.670Z,19.96
2019-05-29T10:32:33.641Z,20.32
2019-05-29T10:35:00.560Z,20.57
2019-05-29T10:37:27.796Z,20.52
2019-05-29T10:39:54.673Z,20.44
2019-05-29T10:42:22.596Z,20.68
2019-05-29T10:44:50.902Z,20.61
2019-05-29T10:47:18.298Z,21.41
2019-05-29T10:49:45.519Z,21.46
2019-05-29T10:52:16.632Z,22.00
2019-05-29T10:54:41.162Z,21.74
2019-05-29T10:57:08.004Z,21.97
2019-05-29T10:59:34.942Z,22.28
2019-05-29T11:02:01.859Z,22.41
2019-05-29T11:04:28.626Z,22.56
2019-05-29T11:06:56.889Z,22.40
2019-05-29T11:09:24.266Z,22.97
2019-05-29T11:11:53.026Z,22.62
2019-05-29T11:14:19.969Z,22.59
2019-05-29T11:16:47.313Z,22.99
2019-05-29T11:19:14.159Z,22.47
2019-05-29T11:21:41.220Z,21.94
2019-05-29T11:24:08.334Z,21.22
2019-05-29T11:26:35.230Z,20.93
2019-05-29T11:29:02.047Z,22.10
2019-05-29T11:31:29.006Z,23.07
2019-05-29T11:33:57.150Z,24.46
2019-05-29T11:36:24.188Z,25.52
2019-05-29T11:38:52.471Z,25.18
2019-05-29T11:41:26.422Z,24.67
2019-05-29T11:43:51.028Z,23.40
2019-05-29T11:46:18.240Z,22.32
2019-05-29T11:48:45.206Z,22.04
2019-05-29T11:51:12.165Z,21.30
2019-05-29T11:53:39.286Z,20.98
2019-05-29T11:56:06.252Z,20.49
2019-05-29T11:58:33.139Z,20.50
2019-05-29T12:01:01.345Z,21.51
2019-05-29T12:03:28.687Z,22.16
2019-05-29T12:05:55.564Z,21.83
2019-05-29T12:08:22.657Z,21.73
2019-05-29T12:10:49.540Z,21.61
2019-05-29T12:13:16.777Z,21.55
2019-05-29T12:15:43.661Z,21.20
2019-05-29T12:18:23.022Z,21.04
2019-05-29T12:20:39.391Z,20.89
2019-05-29T12:23:24.337Z,20.62
2019-05-29T12:25:35.106Z,20.63
2019-05-29T12:28:03.406Z,21.10
2019-05-29T12:30:30.700Z,21.63
2019-05-29T12:32:57.513Z,22.07
2019-05-29T12:35:24.350Z,22.28
2019-05-29T12:37:51.164Z,21.69
2019-05-29T12:40:18.157Z,21.31
2019-05-29T12:42:45.338Z,21.70
2019-05-29T12:45:13.557Z,21.79
2019-05-29T12:47:40.973Z,20.71
2019-05-29T12:50:08.765Z,20.45
2019-05-29T12:52:35.605Z,20.15
2019-05-29T12:55:02.654Z,20.12
2019-05-29T12:57:29.441Z,19.80
2019-05-29T12:59:56.433Z,20.52
2019-05-29T13:02:23.328Z,20.76
2019-05-29T13:05:06.813Z,21.19
2019-05-29T13:07:18.930Z,21.03
2019-05-29T13:09:45.799Z,20.92
2019-05-29T13:12:12.673Z,20.86
2019-05-29T13:14:39.635Z,20.89
2019-05-29T13:17:06.433Z,20.78
2019-05-29T13:19:33.415Z,20.22
2019-05-29T13:22:01.642Z,19.81
2019-05-29T13:24:28.591Z,20.24
2019-05-29T13:26:55.597Z,20.42
2019-05-29T13:29:23.459Z,20.62
2019-05-29T13:31:50.372Z,20.81
2019-05-29T13:34:17.425Z,20.44
2019-05-29T13:36:44.365Z,20.42
2019-05-29T13:39:11.306Z,20.64
2019-05-29T13:41:38.388Z,20.72
2019-05-29T13:44:06.811Z,21.33
2019-05-29T13:46:33.911Z,21.92
2019-05-29T13:49:01.325Z,22.34
2019-05-29T13:51:28.766Z,21.98
2019-05-29T13:54:03.670Z,21.87
2019-05-29T13:56:24.687Z,21.80
2019-05-29T13:58:51.806Z,21.23
2019-05-29T14:01:18.900Z,21.29
2019-05-29T14:03:50.198Z,21.31
2019-05-29T14:06:14.379Z,21.15
2019-05-29T14:08:41.197Z,20.69
2019-05-29T14:11:09.118Z,20.44
2019-05-29T14:13:36.396Z,20.22
2019-05-29T14:16:04.216Z,20.33
2019-05-29T14:18:31.058Z,20.52
2019-05-29T14:20:58.001Z,20.73
2019-05-29T14:23:25.161Z,20.94
2019-05-29T14:25:52.038Z,21.28
2019-05-29T14:28:19.158Z,21.06
2019-05-29T14:30:45.928Z,20.94
2019-05-29T14:33:15.050Z,20.59
2019-05-29T14:35:41.921Z,20.22
2019-05-29T14:38:11.602Z,19.98
2019-05-29T14:40:37.777Z,19.94
2019-05-29T14:43:07.192Z,20.14
2019-05-29T14:45:33.826Z,20.49
2019-05-29T14:48:02.053Z,20.69
2019-05-29T14:50:29.163Z,21.27
2019-05-29T14:52:56.166Z,22.17
2019-05-29T14:55:22.987Z,22.39
2019-05-29T14:57:49.890Z,23.50
2019-05-29T15:00:24.954Z,25.31
2019-05-29T15:02:46.336Z,25.19
2019-05-29T15:05:15.000Z,23.93
2019-05-29T15:07:42.303Z,23.56
2019-05-29T15:10:22.679Z,24.90
2019-05-29T15:12:38.643Z,27.55
2019-05-29T15:15:06.665Z,29.95
2019-05-29T15:17:33.920Z,30.48
2019-05-29T15:20:07.450Z,32.19
2019-05-29T15:22:34.432Z,32.68
2019-05-29T15:25:11.425Z,33.79
2019-05-29T15:27:30.581Z,34.99
2019-05-29T15:29:57.504Z,33.78
2019-05-29T15:32:24.412Z,33.16
2019-05-29T15:34:51.429Z,30.39
2019-05-29T15:37:18.918Z,28.77
2019-05-29T15:39:45.857Z,30.28
2019-05-29T15:42:12.958Z,28.79
2019-05-29T15:44:40.857Z,25.49
2019-05-29T15:47:08.747Z,27.53
2019-05-29T15:49:36.067Z,29.33
2019-05-29T15:52:03.094Z,31.01
2019-05-29T15:54:30.269Z,31.19
2019-05-29T15:56:57.330Z,29.82
2019-05-29T15:59:24.377Z,29.18
2019-05-29T16:01:51.213Z,26.74
2019-05-29T16:04:31.059Z,25.21
2019-05-29T16:06:59.149Z,23.50
2019-05-29T16:09:25.918Z,23.00
2019-05-29T16:11:52.945Z,22.04
2019-05-29T16:14:20.570Z,21.76
2019-05-29T16:16:48.441Z,21.10
2019-05-29T16:19:16.267Z,20.80
2019-05-29T16:21:43.150Z,20.48
2019-05-29T16:24:19.150Z,20.51
2019-05-29T16:26:46.146Z,20.34
2019-05-29T16:29:15.991Z,20.14
2019-05-29T16:31:42.059Z,20.28
2019-05-29T16:34:09.365Z,20.04
2019-05-29T16:36:36.389Z,20.01
2019-05-29T16:39:05.867Z,19.73
2019-05-29T16:41:32.799Z,19.46
2019-05-29T16:44:00.562Z,19.29
2019-05-29T16:46:27.336Z,19.11
2019-05-29T16:48:54.599Z,19.19
2019-05-29T16:51:22.915Z,19.08
2019-05-29T16:53:50.971Z,19.11
2019-05-29T16:56:18.752Z,19.03
2019-05-29T16:58:46.373Z,18.77
2019-05-29T17:01:13.633Z,18.65
2019-05-29T17:03:41.392Z,18.70
2019-05-29T17:06:08.445Z,18.54
2019-05-29T17:08:35.333Z,18.46
2019-05-29T17:11:04.860Z,18.35
2019-05-29T17:13:31.070Z,18.33
2019-05-29T17:15:57.936Z,18.03
2019-05-29T17:18:25.183Z,18.01
2019-05-29T17:20:52.331Z,17.93
2019-05-29T17:23:19.189Z,17.87
2019-05-29T17:25:46.135Z,17.73
2019-05-29T17:28:14.928Z,17.65
2019-05-29T17:30:41.874Z,17.56
2019-05-29T17:33:08.900Z,17.48
2019-05-29T17:35:36.244Z,17.52
2019-05-29T17:38:03.536Z,17.31
2019-05-29T17:40:30.414Z,17.30
2019-05-29T17:42:57.632Z,17.20
2019-05-29T17:45:26.077Z,17.10
2019-05-29T17:47:54.285Z,17.10
2019-05-29T17:50:23.121Z,17.08
2019-05-29T17:52:49.861Z,17.17
2019-05-29T17:55:19.136Z,17.06
2019-05-29T17:57:46.041Z,16.98
2019-05-29T18:00:16.441Z,16.98
2019-05-29T18:02:51.918Z,16.92
2019-05-29T18:05:12.849Z,16.80
2019-05-29T18:07:39.874Z,16.72
2019-05-29T18:10:07.643Z,16.65
2019-05-29T18:12:34.432Z,16.70
2019-05-29T18:15:01.612Z,16.60
2019-05-29T18:17:28.823Z,16.48
2019-05-29T18:19:56.716Z,16.34
2019-05-29T18:22:23.757Z,16.41
2019-05-29T18:24:50.641Z,16.34
2019-05-29T18:27:19.847Z,16.33
2019-05-29T18:29:46.992Z,16.22
2019-05-29T18:32:14.225Z,16.07
2019-05-29T18:34:41.711Z,16.10
2019-05-29T18:37:09.163Z,16.01
2019-05-29T18:39:36.330Z,15.95
2019-05-29T18:42:03.216Z,15.91
2019-05-29T18:44:30.030Z,15.70
2019-05-29T18:46:56.814Z,15.67
2019-05-29T18:49:24.327Z,15.57
2019-05-29T18:51:51.266Z,15.62
2019-05-29T18:54:18.307Z,15.59
2019-05-29T18:57:13.240Z,15.53
2019-05-29T18:59:14.009Z,15.48
2019-05-29T19:01:42.815Z,15.37
2019-05-29T19:04:09.766Z,15.27
2019-05-29T19:06:36.913Z,15.16
2019-05-29T19:09:05.682Z,14.96
2019-05-29T19:11:32.943Z,14.91
2019-05-29T19:13:59.865Z,14.67
2019-05-29T19:16:27.975Z,14.51
2019-05-29T19:18:54.894Z,14.28
2019-05-29T19:21:22.293Z,14.10
2019-05-29T19:23:49.400Z,13.98
2019-05-29T19:26:16.414Z,13.99
2019-05-29T19:28:44.941Z,13.81
2019-05-29T19:31:12.631Z,13.74
2019-05-29T19:33:39.819Z,13.63
2019-05-29T19:36:06.740Z,13.53
2019-05-29T19:38:34.142Z,13.36
2019-05-29T19:41:01.726Z,13.18
2019-05-29T19:43:30.309Z,13.03
2019-05-29T19:45:57.273Z,12.87
2019-05-29T19:48:24.784Z,12.73
2019-05-29T19:50:52.188Z,12.59
2019-05-29T19:53:19.038Z,12.49
2019-05-29T19:55:46.248Z,12.35
2019-05-29T19:58:13.935Z,12.21
2019-05-29T20:00:41.275Z,12.07
2019-05-29T20:03:08.119Z,11.99
2019-05-29T20:05:35.076Z,11.91
2019-05-29T20:08:02.055Z,11.80
2019-05-29T20:10:31.358Z,11.70
2019-05-29T20:12:58.374Z,11.59
2019-05-29T20:15:25.276Z,11.47
2019-05-29T20:17:52.689Z,11.36
2019-05-29T20:20:20.321Z,11.29
2019-05-29T20:22:47.741Z,11.21
2019-05-29T20:25:14.786Z,11.10
2019-05-29T20:27:42.493Z,11.01
2019-05-29T20:30:14.904Z,10.96
2019-05-29T20:32:42.765Z,10.91
2019-05-29T20:35:09.928Z,10.87
2019-05-29T20:37:38.202Z,10.85
2019-05-29T20:40:05.768Z,10.78
2019-05-29T20:42:34.126Z,10.76
2019-05-29T20:45:01.494Z,10.68
2019-05-29T20:47:29.817Z,10.63
2019-05-29T20:49:56.789Z,10.52
2019-05-29T20:52:23.544Z,10.44
2019-05-29T20:54:50.466Z,10.34
2019-05-29T20:57:17.911Z,10.26
2019-05-29T20:59:44.854Z,10.18
2019-05-29T21:02:12.346Z,10.10
2019-05-29T21:04:39.071Z,10.02
2019-05-29T21:07:05.824Z,9.91
2019-05-29T21:09:32.961Z,9.83
2019-05-29T21:12:00.190Z,9.89
2019-05-29T21:14:27.004Z,9.75
2019-05-29T21:16:53.887Z,9.68
2019-05-29T21:19:20.777Z,9.61
2019-05-29T21:21:47.693Z,9.56
2019-05-29T21:24:14.477Z,9.51
2019-05-29T21:26:45.739Z,9.48
2019-05-29T21:29:12.771Z,9.41
2019-05-29T21:31:39.646Z,9.33
2019-05-29T21:34:06.823Z,9.29
2019-05-29T21:36:33.638Z,9.23
2019-05-29T21:39:00.391Z,9.14
2019-05-29T21:41:27.137Z,9.10
2019-05-29T21:43:55.858Z,9.05
2019-05-29T21:46:23.457Z,9.05
2019-05-29T21:48:50.564Z,8.99
2019-05-29T21:51:21.308Z,8.94
2019-05-29T21:53:49.745Z,8.92
2019-05-29T21:56:16.811Z,8.86
2019-05-29T21:59:00.245Z,8.80
2019-05-29T22:01:13.436Z,8.77
2019-05-29T22:03:40.636Z,8.71
2019-05-29T22:06:08.003Z,8.69
2019-05-29T22:08:35.863Z,8.67
2019-05-29T22:11:02.798Z,8.64
2019-05-29T22:13:29.620Z,8.62
2019-05-29T22:15:56.855Z,8.58
2019-05-29T22:18:23.730Z,8.60
2019-05-29T22:20:51.037Z,8.58
2019-05-29T22:23:18.011Z,8.56
2019-05-29T22:25:44.870Z,8.52
2019-05-29T22:28:11.968Z,8.40
2019-05-29T22:30:38.869Z,8.36
2019-05-29T22:33:05.800Z,8.33
2019-05-29T22:35:32.896Z,8.30
2019-05-29T22:38:00.112Z,8.27
2019-05-29T22:40:26.950Z,8.25
2019-05-29T22:42:54.075Z,8.18
2019-05-29T22:45:20.969Z,8.11
2019-05-29T22:47:48.146Z,8.10
2019-05-29T22:50:15.235Z,8.01
2019-05-29T22:52:42.231Z,7.97
2019-05-29T22:55:09.129Z,7.90
2019-05-29T22:57:36.174Z,7.87
2019-05-29T23:00:04.914Z,7.78
2019-05-29T23:02:31.898Z,7.74
2019-05-29T23:04:58.648Z,7.72
2019-05-29T23:07:25.384Z,7.74
2019-05-29T23:09:52.211Z,7.65
2019-05-29T23:12:18.955Z,7.63
2019-05-29T23:14:45.846Z,7.61
2019-05-29T23:17:12.597Z,7.59
2019-05-29T23:19:39.477Z,7.56
2019-05-29T23:22:06.337Z,7.53
2019-05-29T23:24:33.449Z,7.45
2019-05-29T23:27:00.894Z,7.42
2019-05-29T23:29:27.769Z,7.36
2019-05-29T23:31:54.743Z,7.36
2019-05-29T23:34:21.630Z,7.34
2019-05-29T23:36:49.344Z,7.36
2019-05-29T23:39:16.412Z,7.32
2019-05-29T23:41:43.546Z,7.27
2019-05-29T23:44:10.336Z,7.25
2019-05-29T23:46:37.086Z,7.20
2019-05-29T23:49:04.049Z,7.16
2019-05-29T23:51:32.920Z,7.11
2019-05-29T23:53:59.987Z,7.10
2019-05-29T23:56:26.739Z,7.06
2019-05-29T23:58:53.668Z,6.99
